空港情報

日本の空港の気象及び、管制情報です。
気象情報はより詳細な情報が取得できる「AVIATION WEATER CENTER」 から取得しているため、VATSIMの気象情報と若干のタイムラグが生じることがあります。

VRCのフィールド設定用空港一覧はこちらをご覧ください。

RJCG Sapporo Control

RJCW / Wakkanai
VMC

NO RADAR

RADIO

08/26 2200x45

民間 civil

9999

200@11KT

29.79

RJCW 240900Z 20011KT 9999 -SHRA FEW015 FEW050CB BKN070 18/17 Q1009

RJER / Rishiri

NO RADAR

REMOTE

25/07 1800x45

民間 civil

過去5時間に発表されたMETARがありません。

RJEB / Monbetsu

NO RADAR

REMOTE

32/14 2000x45

民間 civil

過去5時間に発表されたMETARがありません。

RJCM / Memanbetsu
VMC

NO RADAR

TOWER

36/18 2500x45

民間 civil

9999

200@13KT

29.85

RJCM 241100Z 20013KT 9999 FEW015 BKN/// 19/15 Q1011

RJEC / Asahikawa
VMC

NO RADAR

TOWER

34/16 2500x60

民間 civil

9999

170@7KT

29.85

RJEC 241100Z 17007KT 150V230 9999 FEW015 SCT030 FEW030CB BKN/// 17/14 Q1011

RJCN / Nakashibetsu
VMC

NO RADAR

RADIO

08/26 2000x45

民間 civil

9999

200@9KT

29.94

RJCN 240900Z 20009KT 9999 FEW008 SCT010 BKN015 17/16 Q1014

RJCK / Kushiro
IMC

NO RADAR

TOWER

17/35 2500x45

民間 civil

8000

190@12KT

29.91

RJCK 241100Z 19012KT 8000 FEW002 BKN005 BKN006 18/17 Q1013

RJCO / Sapporo
VMC

RJCO_APP

TOWER

14/32 1500x30

共用 dual

9999

170@8KT

29.88

RJCO 240729Z 17008KT 9999 FEW030 BKN080 BKN200 20/18 Q1012 RMK 1CU030 5AC080 7CI200 A2988

RJCJ / Chitose

RJCC_APP

TOWER

36R/18L 3000x60
36L/18R 2700x45

自衛隊 military

過去5時間に発表されたMETARがありません。

RJCC / NewChitose
VMC

RJCC_APP

TOWER

01L/19R 3000x60
01R/19L 3000x60

民間 civil

9999

090@3KT

29.91

RJCC 241200Z 09003KT 060V120 9999 FEW010 SCT100 BKN/// 17/16 Q1013 RMK 1ST010 4AC100 A2992

RJCB / Obihiro
VMC

NO RADAR

TOWER

35/17 2500x45

民間 civil

9999

000@2KT

29.91

RJCB 241100Z VRB02KT 9999 FEW007 BKN060 16/15 Q1013

RJEO / Okushiri

NO RADAR

REMOTE

12/30 1500x45

民間 civil

過去5時間に発表されたMETARがありません。

RJCH / Hakodate
VMC

RJCH_APP

TOWER

12/30 3000x45

民間 civil

9999

300@4KT

29.91

RJCH 241100Z 30004KT 9999 FEW020 BKN070 BKN080 19/18 Q1013

RJSA / Aomori
VMC

NO RADAR

TOWER

24/06 3000x60

民間 civil

9999

240@6KT

29.97

RJSA 241200Z 24006KT 9999 FEW010 SCT015 BKN020 18/17 Q1015

RJSO / Ominato
VMC

RJSM_APP

TOWER

04/22 600x45

自衛隊 military

9999

280@5KT

29.91

RJSO 241007Z 28005KT 9999 -SHRA FEW015 BKN030 BKN070 19/17 Q1013 RMK 1CU015 5CU030 7AC070 A2994

RJSM / Misawa

RJSM_APP

TOWER

10/28 3050x45

共用 dual

過去5時間に発表されたMETARがありません。

RJSH / Hachinohe

RJSM_APP

TOWER

25/07 2250x45

自衛隊 military

過去5時間に発表されたMETARがありません。

RJSK / Akita
VMC

NO RADAR

TOWER

10/28 2500x60

民間 civil

6000

200@3KT

29.97

RJSK 241200Z 20003KT 120V250 6000 R28/1300VP1800D +SHRA FEW005 BKN015 BKN025 19/18 Q1015

RJSI / Hanamaki
VMC

NO RADAR

RADIO

20/02 2500x45

民間 civil

9999

250@3KT

29.97

RJSI 241000Z 25003KT 9999 FEW020 BKN180 21/19 Q1015

RJSR / Odate-Noshiro
IMC

NO RADAR

REMOTE

11/29 2000x45

民間 civil

4000

220@3KT

29.94

RJSR 241000Z 22003KT 170V260 4000 R11/1200VP2000N SHRA BR FEW001 SCT010 BKN020 20/19 Q1014

RJTG Tokyo Control

RJSY / Shonai
VMC

NO RADAR

RADIO

09/27 2000x45

民間 civil

9999

160@3KT

29.97

RJSY 241200Z 16003KT 9999 FEW030 SCT070 BKN160 21/18 Q1015

RJSC / Yamagata
VMC

NO RADAR

RADIO

01/19 2000x45

民間 civil

9999

320@2KT

29.97

RJSC 241000Z 32002KT 9999 FEW050 SCT060 BKN150 20/19 Q1015

RJST / Matsushima

RJSS_APP

TOWER

07/25 2071x46
15/33 1500x46

自衛隊 military

過去5時間に発表されたMETARがありません。

RJSS / Sendai
IMC

RJSS_APP

TOWER

27/09 3000x45
12/30 1200x45

民間 civil

9999

140@7KT

29.97

RJSS 241200Z 14007KT 9999 FEW004 SCT006 BKN008 23/22 Q1015

RJSD / Sado

NO RADAR

REMOTE

10/28 890x25

民間 civil

過去5時間に発表されたMETARがありません。

RJSN / Niigata
VMC

RJSN_APP

TOWER

10/28 2500x45
04/22 1314x45

民間 civil

9999

190@5KT

30.00

RJSN 241200Z 19005KT 9999 FEW040 BKN070 BKN150 23/19 Q1016

RJSF / Fukushima
VMC

NO RADAR

RADIO

01/19 2500x60

民間 civil

9999

000@2KT

30.00

RJSF 241100Z VRB02KT 9999 FEW012 BKN015 BKN020 22/20 Q1016

RJAH / Ibaraki/Hyakuri
VMC

RJAH_APP

TOWER

03L/21R 2700x45
03R/21L 2700x45

共用 dual

9999

350@3KT

29.97

RJAH 241200Z 35003KT 9999 FEW010 BKN040 22/22 Q1015

RJTT / Tokyo
VMC

RJTT_APP

TOWER

34LR/16RL 3000x60
04/22&05/23 2500x60

民間 civil

9999

070@12KT

29.94

RJTT 241200Z 07012KT 9999 FEW020 BKN/// 25/22 Q1014 NOSIG RMK 1CU020 A2997

RJAA / Narita
VMC

RJTT_APP

TOWER

34L/16R 4000x60
34R/16L 2500x60

民間 civil

9999

030@5KT

29.97

RJAA 241200Z 03005KT 350V060 9999 FEW005 SCT/// 22/21 Q1015 NOSIG RMK 1ST005 A2997

RJTL / Shimofusa

RJTT_APP

TOWER

19/01 2250x45

自衛隊 military

過去5時間に発表されたMETARがありません。

RJTE / Tateyama

RJTT_APP

TOWER

09/27 300x45

自衛隊 military

過去5時間に発表されたMETARがありません。

RJTO / Oshima
VMC

NO RADAR

RADIO

03/21 1800x45

民間 civil

9999

220@4KT

29.94

RJTO 240800Z 22004KT 190V260 9999 FEW015 BKN/// 26/23 Q1014

RJTK / Kisarazu

NO RADAR

TOWER

02/20 1830x45

自衛隊 military

過去5時間に発表されたMETARがありません。

RJAN / Niijima

NO RADAR

REMOTE

11/29 800x25

自衛隊 military

過去5時間に発表されたMETARがありません。

RJAZ / Kozushima

NO RADAR

REMOTE

11/29 800x25

民間 civil

過去5時間に発表されたMETARがありません。

RJTH / Hachijojima

NO RADAR

RADIO

26/08 2000x45

民間 civil

過去5時間に発表されたMETARがありません。

RJTF / Chofu

NO RADAR

Flight Service

35/17 800x30

民間 civil

過去5時間に発表されたMETARがありません。

RJTQ / Miyake

NO RADAR

REMOTE

02/20 1200x30

民間 civil

過去5時間に発表されたMETARがありません。

RJTC / Tachikawa

NO RADAR

TOWER

01/19 900x45

自衛隊 military

過去5時間に発表されたMETARがありません。

RJTA / Atsugi

NO RADAR

TOWER

01/19 2438x45

自衛隊 military

過去5時間に発表されたMETARがありません。

RJTU / Utsunomiya

RJTY_APP

TOWER

01/19 1700x45

自衛隊 military

過去5時間に発表されたMETARがありません。

RJTJ / Iruma

RJTY_APP

TOWER

17/35 2000x45

自衛隊 military

過去5時間に発表されたMETARがありません。

RJTY / Yokota
VMC

RJTY_APP

TOWER

18/36 3353x60

自衛隊 military

9999

000@0KT

30.02

RJTY 241056Z AUTO 00000KT 10SM BKN027 25/21 A3002 RMK AO2 VIS 3/8 RWY18 CIG 024 RWY18 SLP163 T02500211 FZRANO $

RJAF / Matsumoto

NO RADAR

RADIO

18/36 2000x45

民間 civil

過去5時間に発表されたMETARがありません。

RJNS / Shizuoka
VMC

NO RADAR

RADIO

30/12 2500x60

民間 civil

9999

000@2KT

29.97

RJNS 241200Z VRB02KT 9999 FEW010 SCT040 BKN/// 23/23 Q1015

RJNY / Yaizu-Shizuhama
VMC

NO RADAR

TOWER

27/09 1500x45

自衛隊 military

9999

180@8KT

29.91

RJNY 240730Z 18008KT 160V220 9999 FEW025 SCT140 BKN250 26/22 Q1013 RMK 1CU025 3AC140 A2993

RJNH / Hamamatsu

RJNH_APP

TOWER

09/27 2550x60

自衛隊 military

過去5時間に発表されたMETARがありません。

RJGG / Chubu
VMC

RJGG_APP

TOWER

36/18 3500x60

民間 civil

9999

320@11KT

29.94

RJGG 241200Z 32011KT 9999 FEW020 BKN/// 25/19 Q1014 NOSIG

RJNA / Nagoya

RJGG_APP

TOWER

34/16 2740x45

民間 civil

過去5時間に発表されたMETARがありません。

RJNG / Gifu

RJGG_APP

TOWER

28/10 2710x46

自衛隊 military

過去5時間に発表されたMETARがありません。

RJOE / Akeno

RJOE_APP

TOWER

13/31 500x30
04/22 500x30

自衛隊 military

過去5時間に発表されたMETARがありません。

RJNK / Komatsu
VMC

RJNK_APP

TOWER

06/24 2700x45

共用 dual

9999

020@4KT

30.03

RJNK 241200Z 02004KT 9999 FEW010 SCT020 BKN030 23/18 Q1017

RJNW / Noto
VMC

NO RADAR

RADIO

25/07 2000x45

民間 civil

9999

000@2KT

30.00

RJNW 241000Z VRB02KT 9999 -SHRA FEW010 SCT030 BKN100 20/18 Q1016

RJNT / Toyama
VMC

NO RADAR

TOWER

20/02 2000x45

民間 civil

9999

000@2KT

30.00

RJNT 241200Z VRB02KT 9999 VCSH FEW015 SCT050 BKN130 22/19 Q1016

RJNF / Fukui

NO RADAR

REMOTE

18/36 1200x30

民間 civil

過去5時間に発表されたMETARがありません。

RJBD / Nanki-Shirahama
VMC

NO RADAR

RADIO

15/33 2000x45

民間 civil

9999

330@4KT

29.94

RJBD 241000Z 33004KT 300V020 9999 FEW020 SCT040 BKN110 25/20 Q1014

RJOY / Yao
VMC

RJBB_APP

TOWER

27/09 1490x45
13/31 1200x30

民間 civil

9999

010@5KT

29.97

RJOY 241000Z 01005KT 330V050 9999 FEW030 SCT080 BKN120 26/16 Q1015

RJOO / Osaka
VMC

RJBB_APP

TOWER

32L/14R 3000x60
32R/14L 1830x45

民間 civil

9999

310@7KT

29.97

RJOO 241100Z 31007KT CAVOK 24/15 Q1015 RMK A2999

RJOB / Okayama
VMC

RJBB_APP

TOWER

07/25 3000x45

民間 civil

9000

350@8KT

30.00

RJOB 241200Z 35008KT 9000 FEW020 SCT120 BKN140 19/14 Q1016

RJBB / Kansai
VMC

RJBB_APP

TOWER

06R/24L 3500x60
06L/24R 4000x60

民間 civil

9999

360@5KT

29.97

RJBB 241200Z 36005KT 9999 FEW030 SCT120 BKN/// 24/19 Q1015 NOSIG

RJBE / Kobe
VMC

RJBB_APP

TOWER

09/27 2500x60

民間 civil

9999

170@6KT

29.97

RJBE 241200Z 17006KT 9999 FEW025 SCT150 BKN/// 24/21 Q1015

RJBT / Tajima
VMC

NO RADAR

REMOTE

01/19 1200x30

民間 civil

9999

000@1KT

30.00

RJBT 240900Z VRB01KT 9999 -RA FEW005 SCT015 BKN130 20/20 Q1016

RJOR / Tottori
VMC

NO RADAR

RADIO

10/28 2000x45

民間 civil

9999

140@7KT

30.03

RJOR 241200Z 14007KT 9999 -RA FEW025 SCT090 BKN120 20/20 Q1017

RJNO / Oki

NO RADAR

REMOTE

07/25 2000x45

民間 civil

過去5時間に発表されたMETARがありません。

RJOH / Miho
VMC

RJOH_APP

TOWER

25/07 2500x45

共用 dual

9999

160@4KT

30.03

RJOH 241200Z 16004KT 9999 -RA FEW020 SCT030 BKN050 20/18 Q1017

RJOC / Izumo
VMC

RJOH_APP

RADIO

07/25 2000x45

共用 dual

9999

180@3KT

30.00

RJOC 241100Z 18003KT 140V220 9999 -RA FEW025 SCT035 BKN050 20/18 Q1016

RJDG Fukuoka Control

RJOT / Takamatsu
VMC

RJBB_APP

TOWER

26/08 2500x60

民間 civil

9999

000@2KT

30.03

RJOT 241200Z VRB02KT 9999 FEW025 SCT120 BKN140 21/20 Q1017

RJOK / Kochi
VMC

RJBB_APP

TOWER

32/14 2500x45

民間 civil

9999

350@5KT

29.94

RJOK 241100Z 35005KT 9999 FEW025 SCT130 BKN/// 24/15 Q1014

RJOS / Tokushima

RJOS_APP

TOWER

29/11 2500x45

共用 dual

過去5時間に発表されたMETARがありません。

RJOA / Hiroshima
IMC

RJOA_APP

TOWER

10/28 3000x60

民間 civil

1800

330@2KT

30.03

RJOA 241200Z 33002KT 1800 -RA BCFG BR FEW000 SCT003 BKN090 18/17 Q1017

RJBH / Hiroshimanishi

NO RADAR

Flight Service

04/22 1800x45

民間 civil

過去5時間に発表されたMETARがありません。

RJOI / Iwakuni
VMC

RJOI_APP

TOWER

02/20 2440x60

共用 dual

8000

310@5KT

30.04

RJOI 241155Z 31005KT 8000 -RA BR FEW015 BKN045 OVC100 21/18 A3004 RMK SLP173 P0003 60017 70018 T02060183 10228 20206 53014

RJOM / Matsuyama
VMC

RJOI_APP

TOWER

14/32 2500x45

民間 civil

9999

000@2KT

30.00

RJOM 241200Z VRB02KT 9999 FEW008 SCT100 BKN120 21/18 Q1016

RJOZ / Ozuki

RJFZ_APP

TOWER

35/17 1201x61
12/30 899x46

自衛隊 military

過去5時間に発表されたMETARがありません。

RJOF / Hofu

RJFZ_APP

TOWER

30/12 1180x60
01/19 1480x45

自衛隊 military

過去5時間に発表されたMETARがありません。

RJDC / Yamaguchi-Ube
VMC

RJFZ_APP

RADIO

07/25 2500x45

民間 civil

9999

330@4KT

30.03

RJDC 241200Z 33004KT 9999 -RA FEW025 SCT060 OVC120 20/19 Q1017

RJFR / Kitakyushu
VMC

RJFZ_APP

TOWER

18/36 2500x60

民間 civil

9999

050@6KT

30.00

RJFR 241200Z 05006KT 010V080 9999 FEW015 OVC120 22/17 Q1016

RJFZ / Tsuiki

RJFZ_APP

TOWER

25/07 2399x46

自衛隊 military

過去5時間に発表されたMETARがありません。

RJOW / Iwami
VMC

NO RADAR

REMOTE

11/29 2000x45

民間 civil

9999

150@3KT

30.00

RJOW 241000Z 15003KT 110V200 9999 FEW008 SCT035 BKN050 20/18 Q1016

RJDT / Tsushima
VMC

NO RADAR

REMOTE

32/14 1900x45

民間 civil

9999

340@3KT

30.03

RJDT 241100Z 34003KT 9999 FEW040 SCT050 BKN/// 19/15 Q1017

RJFF / Fukuoka
VMC

RJFF_APP

TOWER

16/34 2800x60

民間 civil

9999

000@1KT

30.00

RJFF 241200Z VRB01KT 9999 FEW030 BKN110 21/18 Q1016 NOSIG RMK 1CU030 7AC110 A3002

RJFS / Saga
VMC

RJFF_APP

RADIO

29/11 2000x45

民間 civil

8000

000@2KT

30.00

RJFS 241200Z VRB02KT 8000 VCSH FEW020 SCT060 BKN130 20/19 Q1016

RJFA / Ashiya

RJFF_APP

TOWER

12/30 1640x46

自衛隊 military

過去5時間に発表されたMETARがありません。

RJDB / Iki

RJFF_APP

REMOTE

20/02 1200x30

民間 civil

過去5時間に発表されたMETARがありません。

RJFO / Oita
VMC

RJFO_APP

TOWER

01/19 3000x45

民間 civil

9999

320@4KT

30.00

RJFO 241200Z 32004KT 9999 -RA FEW007 SCT100 BKN120 20/19 Q1016

RJFU / Nagasaki
VMC

RJFU_APP

TOWER

32/14 3000x60

民間 civil

9999

000@1KT

30.00

RJFU 241200Z VRB01KT 9999 FEW050 BKN170 20/19 Q1016

RJDU / Omura

RJFU_APP

TOWER

18/36 1200x30

自衛隊 military

過去5時間に発表されたMETARがありません。

RJFE / Fukue

NO RADAR

RADIO

03/21 2000x45

民間 civil

過去5時間に発表されたMETARがありません。

RJDO / Ojika

NO RADAR

REMOTE

03/21 800x30

民間 civil

過去5時間に発表されたMETARがありません。

RJDK / Kamigoto

NO RADAR

REMOTE

17/35 800x30

民間 civil

過去5時間に発表されたMETARがありません。

RJDA / Amakusa

NO RADAR

Flight Service

31/13 1000x30

民間 civil

過去5時間に発表されたMETARがありません。

RJFT / Kumamoto
VMC

RJFT_APP

TOWER

07/25 3000x45

民間 civil

9999

000@2KT

30.00

RJFT 241200Z VRB02KT 9999 -RA FEW002 SCT080 BKN100 18/18 Q1016

RJFN / Nyutabaru

RJFM_APP

TOWER

28/10 2701x46

自衛隊 military

過去5時間に発表されたMETARがありません。

RJFM / Miyazaki
VMC

RJFM_APP

TOWER

27/09 2500x45

民間 civil

9999

270@6KT

29.97

RJFM 241200Z 27006KT 9999 FEW020 SCT080 BKN160 21/20 Q1015

RJFK / Kagoshima
VMC

RJFK_APP

TOWER

34/16 3000x45

民間 civil

9999

010@6KT

29.97

RJFK 241200Z 01006KT 330V040 9999 -RA FEW010 BKN070 OVC100 19/16 Q1015 RMK 1CU010 6AC070 8AS100 A3000

RJFY / Kanoya

RJFY_APP

TOWER

26L/08R 2250x45
26R/08L 1200x40

自衛隊 military

過去5時間に発表されたMETARがありません。

RJFG / Tanegashima
VMC

NO RADAR

RADIO

31/13 2000x45

民間 civil

9999

020@5KT

29.94

RJFG 240900Z 02005KT 330V080 9999 FEW025 SCT050 BKN070 20/17 Q1014

RJFC / Yakushima

NO RADAR

REMOTE

14/32 1500x45

民間 civil

過去5時間に発表されたMETARがありません。

RORG Naha Control

ROAH / Naha
VMC

ROAH_APP

TOWER

36/18 3000x45

共用 dual

9999

030@14KT

29.76

ROAH 241200Z 03014KT 010V070 9999 VCSH FEW020 SCT050 BKN/// 28/24 Q1008

RORA / Aguni

ROAH_APP

REMOTE

01/19 800x25

民間 civil

過去5時間に発表されたMETARがありません。

ROKJ / Kumejima

ROAH_APP

REMOTE

03/21 2000x45

民間 civil

過去5時間に発表されたMETARがありません。

RODN / Kadena
VMC

ROAH_APP

TOWER

05L/23R 3688x91
05R/23L 3688x61

自衛隊 military

9999

050@13G22KT

29.80

RODN 241203Z COR AUTO 05013G22KT 10SM FEW025 SCT030 BKN042 26/24 A2980 RMK AO2 RAE03 SLP096 $

ROTM / Futenma
VMC

ROAH_APP

TOWER

06/24 2740x45

自衛隊 military

9999

030@10KT

29.81

ROTM 241156Z 03010KT 9999 SCT019 BKN040 BKN120 27/24 A2981 RMK SLP077 STNPR29510 60001 70050 T02670244 10311 20267 53010

RORS / Shimojishima
VMC

RORS_APP

TOWER

17/35 3000x60

民間 civil

9999

040@22KT

29.70

RORS 241000Z 04022KT 9999 FEW020 SCT025 BKN/// 28/24 Q1006

ROMY / Miyako
VMC

RORS_APP

TOWER

04/22 2000x45

民間 civil

9999

040@14KT

29.73

ROMY 241100Z 04014KT 9999 FEW014 SCT020 28/24 Q1007

ROIG / New Ishigaki
VMC

RORS_APP

TOWER

22/04 2000x45

民間 civil

9999

040@18KT

29.70

ROIG 241100Z 04018KT 9999 SCT017 28/25 Q1006

RORT / Tarama

RORS_APP

REMOTE

36/18 1500x45

民間 civil

過去5時間に発表されたMETARがありません。

RJKA / Amami
VMC

NO RADAR

RADIO

03/21 2000x45

民間 civil

9999

040@27KT

29.82

RJKA 241000Z 04027KT 9999 FEW010 BKN015 BKN025 26/24 Q1010

RJKI / Kikai

NO RADAR

REMOTE

07/25 1200x30

民間 civil

過去5時間に発表されたMETARがありません。

RJKN / Tokunoshima

NO RADAR

REMOTE

19/01 2000x45

民間 civil

過去5時間に発表されたMETARがありません。

RJKB / Okierabu

NO RADAR

REMOTE

04/22 1350x45

民間 civil

過去5時間に発表されたMETARがありません。

RORY / Yoron
VMC

NO RADAR

REMOTE

32/14 1320x30

民間 civil

9999

040@17G28KT

29.79

RORY 241200Z AUTO 04017G28KT 9999 FEW017 SCT019 BKN060 //////TCU 27/24 Q1009

RORK / Kitadaito

NO RADAR

REMOTE

03/21 1500x45

民間 civil

過去5時間に発表されたMETARがありません。

ROMD / Minami-daito

NO RADAR

REMOTE

02/20 1500x45

民間 civil

過去5時間に発表されたMETARがありません。

ROYN / Yonaguni
VMC

NO RADAR

REMOTE

26/08 2000x45

民間 civil

9999

040@24KT

29.76

ROYN 241200Z AUTO 04024KT 9999 SCT017 SCT025 BKN044 //////TCU 28/25 Q1008

RORH / Hateruma

NO RADAR

REMOTE

02/20 800x25

民間 civil

過去5時間に発表されたMETARがありません。

ROKR / Kerama

NO RADAR

REMOTE

02/20 800x25

民間 civil

過去5時間に発表されたMETARがありません。